createdAt,value
2018-07-20T00:00:59.505Z,18.00
2018-07-20T00:03:28.750Z,17.80
2018-07-20T00:05:57.992Z,17.80
2018-07-20T00:08:27.221Z,17.80
2018-07-20T00:10:56.499Z,17.80
2018-07-20T00:13:25.735Z,17.90
2018-07-20T00:15:54.924Z,17.80
2018-07-20T00:18:24.120Z,17.80
2018-07-20T00:20:53.365Z,17.70
2018-07-20T00:23:22.595Z,17.70
2018-07-20T00:25:51.808Z,17.70
2018-07-20T00:28:20.999Z,17.70
2018-07-20T00:30:50.206Z,17.70
2018-07-20T00:33:19.393Z,17.50
2018-07-20T00:35:48.602Z,17.50
2018-07-20T00:38:17.799Z,17.40
2018-07-20T00:40:47.046Z,17.40
2018-07-20T00:43:16.265Z,17.40
2018-07-20T00:45:45.508Z,17.20
2018-07-20T00:48:14.741Z,17.20
2018-07-20T00:50:44.018Z,17.10
2018-07-20T00:53:13.285Z,17.10
2018-07-20T00:55:42.505Z,17.20
2018-07-20T00:58:11.709Z,17.20
2018-07-20T01:00:40.936Z,17.10
2018-07-20T01:03:10.175Z,17.00
2018-07-20T01:05:39.396Z,17.00
2018-07-20T01:08:08.599Z,17.00
2018-07-20T01:10:37.852Z,17.00
2018-07-20T01:13:07.143Z,16.80
2018-07-20T01:15:36.354Z,16.80
2018-07-20T01:18:05.560Z,16.80
2018-07-20T01:20:34.816Z,16.70
2018-07-20T01:23:04.034Z,16.60
2018-07-20T01:25:33.241Z,16.60
2018-07-20T01:28:02.425Z,16.60
2018-07-20T01:30:31.605Z,16.60
2018-07-20T01:33:00.807Z,16.60
2018-07-20T01:35:30.042Z,16.50
2018-07-20T01:37:59.215Z,16.30
2018-07-20T01:40:28.411Z,16.50
2018-07-20T01:42:57.596Z,16.40
2018-07-20T01:45:26.807Z,16.40
2018-07-20T01:50:24.981Z,16.30
2018-07-20T01:52:54.217Z,16.20
2018-07-20T01:55:23.431Z,16.00
2018-07-20T01:57:52.647Z,16.10
2018-07-20T02:00:21.820Z,16.00
2018-07-20T02:02:51.019Z,15.90
2018-07-20T02:05:20.207Z,15.90
2018-07-20T02:07:49.420Z,15.90
2018-07-20T02:10:18.610Z,15.90
2018-07-20T02:12:47.860Z,15.90
2018-07-20T02:15:17.118Z,15.90
2018-07-20T02:17:46.325Z,16.00
2018-07-20T02:20:15.571Z,15.90
2018-07-20T02:22:44.796Z,15.90
2018-07-20T02:25:14.024Z,15.90
2018-07-20T02:27:43.285Z,15.80
2018-07-20T02:30:12.556Z,15.70
2018-07-20T02:32:41.822Z,15.60
2018-07-20T02:35:11.058Z,15.60
2018-07-20T02:37:40.288Z,15.60
2018-07-20T02:40:09.482Z,15.50
2018-07-20T02:42:38.701Z,15.40
2018-07-20T02:45:07.967Z,15.50
2018-07-20T02:47:37.189Z,15.50
2018-07-20T02:50:06.442Z,15.60
2018-07-20T02:52:35.678Z,15.60
2018-07-20T02:55:04.946Z,15.60
2018-07-20T02:57:34.168Z,15.60
2018-07-20T03:00:03.615Z,15.50
2018-07-20T03:02:32.877Z,15.30
2018-07-20T03:05:02.092Z,15.20
2018-07-20T03:07:31.301Z,15.10
2018-07-20T03:10:00.499Z,15.10
2018-07-20T03:12:29.710Z,15.10
2018-07-20T03:14:58.901Z,15.10
2018-07-20T03:17:28.097Z,15.10
2018-07-20T03:19:57.265Z,15.10
2018-07-20T03:22:26.494Z,15.00
2018-07-20T03:24:55.671Z,15.00
2018-07-20T03:27:24.896Z,15.00
2018-07-20T03:29:54.094Z,15.10
2018-07-20T03:32:23.288Z,15.00
2018-07-20T03:34:52.502Z,15.00
2018-07-20T03:37:21.701Z,15.00
2018-07-20T03:39:50.978Z,14.80
2018-07-20T03:42:20.208Z,14.80
2018-07-20T03:44:49.457Z,14.80
2018-07-20T03:47:18.793Z,14.70
2018-07-20T03:49:47.991Z,14.60
2018-07-20T03:52:17.232Z,14.80
2018-07-20T03:54:46.592Z,14.60
2018-07-20T03:57:15.780Z,14.50
2018-07-20T03:59:45.005Z,14.50
2018-07-20T04:02:14.283Z,14.60
2018-07-20T04:04:43.505Z,14.60
2018-07-20T04:07:12.708Z,14.70
2018-07-20T04:09:41.915Z,14.80
2018-07-20T04:12:11.060Z,14.80
2018-07-20T04:14:40.271Z,14.90
2018-07-20T04:17:09.463Z,14.80
2018-07-20T04:19:38.677Z,14.80
2018-07-20T04:22:07.893Z,14.80
2018-07-20T04:24:37.206Z,14.80
2018-07-20T04:27:06.405Z,14.90
2018-07-20T04:29:35.607Z,14.90
2018-07-20T04:32:04.800Z,14.90
2018-07-20T04:34:34.054Z,14.90
2018-07-20T04:37:03.255Z,15.00
2018-07-20T04:39:32.476Z,15.00
2018-07-20T04:42:01.689Z,15.10
2018-07-20T04:44:30.890Z,15.10
2018-07-20T04:47:00.116Z,15.20
2018-07-20T04:49:29.352Z,15.20
2018-07-20T04:51:58.551Z,15.20
2018-07-20T04:54:27.760Z,15.10
2018-07-20T04:56:56.976Z,15.20
2018-07-20T04:59:26.174Z,15.30
2018-07-20T05:01:55.352Z,15.40
2018-07-20T05:04:24.535Z,15.40
2018-07-20T05:06:53.809Z,15.50
2018-07-20T05:09:23.203Z,15.60
2018-07-20T05:11:52.436Z,15.70
2018-07-20T05:14:21.772Z,15.70
2018-07-20T05:16:51.213Z,15.80
2018-07-20T05:19:20.565Z,15.90
2018-07-20T05:21:49.777Z,15.90
2018-07-20T05:24:19.022Z,16.00
2018-07-20T05:26:48.268Z,16.00
2018-07-20T05:29:17.475Z,16.10
2018-07-20T05:31:46.694Z,16.20
2018-07-20T05:34:16.022Z,16.30
2018-07-20T05:36:45.307Z,16.30
2018-07-20T05:39:14.525Z,16.50
2018-07-20T05:41:43.752Z,16.50
2018-07-20T05:44:13.000Z,16.60
2018-07-20T05:46:42.227Z,16.70
2018-07-20T05:49:11.429Z,16.80
2018-07-20T05:51:40.664Z,16.90
2018-07-20T05:54:09.926Z,17.00
2018-07-20T05:56:39.195Z,17.00
2018-07-20T05:59:08.403Z,17.10
2018-07-20T06:01:37.717Z,17.20
2018-07-20T06:04:06.989Z,17.30
2018-07-20T06:06:36.167Z,17.40
2018-07-20T06:09:09.524Z,17.60
2018-07-20T06:11:38.843Z,17.60
2018-07-20T06:14:08.548Z,17.70
2018-07-20T06:16:37.853Z,17.80
2018-07-20T06:19:07.092Z,17.90
2018-07-20T06:21:36.306Z,18.00
2018-07-20T06:24:05.589Z,18.10
2018-07-20T06:26:34.876Z,18.20
2018-07-20T06:29:04.101Z,18.40
2018-07-20T06:31:33.399Z,18.60
2018-07-20T06:34:02.644Z,18.70
2018-07-20T06:36:31.860Z,18.90
2018-07-20T06:39:01.101Z,19.00
2018-07-20T06:41:30.415Z,19.10
2018-07-20T06:43:59.632Z,19.20
2018-07-20T06:46:28.873Z,19.30
2018-07-20T06:48:58.185Z,19.50
2018-07-20T06:51:27.389Z,19.60
2018-07-20T06:53:56.638Z,19.80
2018-07-20T06:56:25.892Z,20.00
2018-07-20T06:58:55.888Z,20.20
2018-07-20T07:01:25.141Z,20.40
2018-07-20T07:03:54.359Z,20.70
2018-07-20T07:06:23.905Z,20.80
2018-07-20T07:08:53.143Z,20.90
2018-07-20T07:11:22.378Z,21.20
2018-07-20T07:13:51.576Z,21.40
2018-07-20T07:16:20.784Z,21.60
2018-07-20T07:18:50.020Z,21.80
2018-07-20T07:21:19.206Z,22.10
2018-07-20T07:23:48.429Z,22.20
2018-07-20T07:26:17.713Z,22.40
2018-07-20T07:28:46.936Z,22.40
2018-07-20T07:31:16.120Z,22.60
2018-07-20T07:33:45.333Z,22.90
2018-07-20T07:36:14.528Z,23.10
2018-07-20T07:41:12.668Z,23.40
2018-07-20T07:43:41.946Z,23.60
2018-07-20T07:46:11.156Z,23.50
2018-07-20T07:48:40.372Z,23.70
2018-07-20T07:51:09.597Z,23.70
2018-07-20T07:53:38.815Z,23.90
2018-07-20T07:56:08.004Z,23.90
2018-07-20T07:58:37.173Z,24.00
2018-07-20T08:01:06.368Z,24.20
2018-07-20T08:03:35.686Z,24.30
2018-07-20T08:06:04.813Z,24.40
2018-07-20T08:08:34.018Z,24.50
2018-07-20T08:11:03.234Z,24.60
2018-07-20T08:13:32.429Z,24.70
2018-07-20T08:16:01.663Z,24.90
2018-07-20T08:18:30.856Z,25.10
2018-07-20T08:21:00.097Z,25.10
2018-07-20T08:23:29.370Z,25.30
2018-07-20T08:25:58.661Z,25.50
2018-07-20T08:28:27.913Z,25.60
2018-07-20T08:30:57.114Z,25.80
2018-07-20T08:33:26.313Z,25.90
2018-07-20T08:35:55.530Z,26.10
2018-07-20T08:38:24.740Z,26.20
2018-07-20T08:40:53.951Z,26.30
2018-07-20T08:43:23.149Z,26.20
2018-07-20T08:45:52.333Z,26.20
2018-07-20T08:48:21.515Z,26.30
2018-07-20T08:50:50.733Z,26.30
2018-07-20T08:53:19.946Z,26.30
2018-07-20T08:55:49.214Z,26.20
2018-07-20T08:58:18.452Z,26.30
2018-07-20T09:00:47.722Z,26.50
2018-07-20T09:03:17.032Z,26.80
2018-07-20T09:05:46.287Z,27.10
2018-07-20T09:08:15.607Z,27.20
2018-07-20T09:10:45.020Z,27.40
2018-07-20T09:13:14.276Z,27.50
2018-07-20T09:15:43.500Z,27.60
2018-07-20T09:18:12.742Z,27.80
2018-07-20T09:20:42.016Z,27.70
2018-07-20T09:23:11.296Z,27.50
2018-07-20T09:25:40.525Z,27.50
2018-07-20T09:28:09.743Z,27.70
2018-07-20T09:30:38.949Z,27.60
2018-07-20T09:33:08.282Z,27.80
2018-07-20T09:35:37.553Z,28.00
2018-07-20T09:38:06.843Z,28.00
2018-07-20T09:40:36.069Z,28.20
2018-07-20T09:43:05.283Z,28.50
2018-07-20T09:45:34.552Z,28.70
2018-07-20T09:48:03.752Z,28.80
2018-07-20T09:50:33.092Z,28.50
2018-07-20T09:53:02.303Z,28.30
2018-07-20T09:58:00.473Z,28.70
2018-07-20T10:00:35.108Z,28.80
2018-07-20T10:03:04.413Z,28.60
2018-07-20T10:05:33.735Z,28.20
2018-07-20T10:08:02.933Z,28.10
2018-07-20T10:10:32.186Z,28.30
2018-07-20T10:13:01.510Z,28.70
2018-07-20T10:15:30.787Z,28.60
2018-07-20T10:18:00.028Z,28.70
2018-07-20T10:20:29.252Z,28.90
2018-07-20T10:22:58.554Z,28.90
2018-07-20T10:25:27.829Z,28.90
2018-07-20T10:27:57.058Z,28.80
2018-07-20T10:30:26.485Z,28.90
2018-07-20T10:32:55.749Z,29.00
2018-07-20T10:36:28.307Z,29.10
2018-07-20T10:38:57.516Z,29.10
2018-07-20T10:41:26.960Z,29.30
2018-07-20T10:43:56.186Z,29.50
2018-07-20T10:46:25.602Z,29.60
2018-07-20T10:48:54.997Z,29.70
2018-07-20T10:51:24.221Z,29.90
2018-07-20T10:53:53.489Z,29.60
2018-07-20T10:56:22.717Z,29.30
2018-07-20T10:58:52.272Z,29.10
2018-07-20T11:01:21.611Z,28.80
2018-07-20T11:03:50.816Z,28.60
2018-07-20T11:08:49.092Z,29.00
2018-07-20T11:11:18.330Z,29.30
2018-07-20T11:13:47.686Z,29.60
2018-07-20T11:18:45.924Z,29.50
2018-07-20T11:21:15.224Z,29.80
2018-07-20T11:23:44.524Z,29.90
2018-07-20T11:26:13.848Z,30.10
2018-07-20T11:28:43.187Z,30.30
2018-07-20T11:31:12.402Z,30.00
2018-07-20T11:33:42.573Z,30.10
2018-07-20T11:36:11.795Z,30.50
2018-07-20T11:38:41.065Z,30.80
2018-07-20T11:41:10.288Z,30.90
2018-07-20T11:43:39.541Z,31.00
2018-07-20T11:46:08.798Z,31.00
2018-07-20T11:48:38.042Z,31.10
2018-07-20T11:51:07.474Z,30.90
2018-07-20T11:53:36.710Z,31.10
2018-07-20T11:56:06.015Z,31.10
2018-07-20T12:01:18.844Z,31.60
2018-07-20T12:03:48.175Z,31.60
2018-07-20T12:06:17.522Z,31.50
2018-07-20T12:08:46.876Z,31.40
2018-07-20T12:11:16.158Z,31.40
2018-07-20T12:13:45.472Z,31.40
2018-07-20T12:16:14.718Z,31.50
2018-07-20T12:18:43.969Z,31.60
2018-07-20T12:21:13.194Z,31.70
2018-07-20T12:23:42.419Z,31.80
2018-07-20T12:26:11.668Z,31.90
2018-07-20T12:28:40.900Z,32.00
2018-07-20T12:31:10.200Z,32.10
2018-07-20T12:33:39.417Z,32.10
2018-07-20T12:36:08.624Z,32.20
2018-07-20T12:38:37.844Z,32.20
2018-07-20T12:41:07.058Z,31.80
2018-07-20T12:43:36.319Z,31.70
2018-07-20T12:46:05.585Z,31.10
2018-07-20T12:48:34.823Z,30.70
2018-07-20T12:51:04.392Z,30.90
2018-07-20T12:53:33.731Z,31.10
2018-07-20T12:56:02.925Z,31.30
2018-07-20T12:58:32.163Z,31.10
2018-07-20T13:01:01.557Z,31.50
2018-07-20T13:03:30.756Z,31.70
2018-07-20T13:05:59.953Z,31.90
2018-07-20T13:08:29.252Z,31.90
2018-07-20T13:10:58.572Z,31.80
2018-07-20T13:13:27.757Z,31.90
2018-07-20T13:15:56.980Z,31.90
2018-07-20T13:18:26.384Z,31.90
2018-07-20T13:20:55.609Z,31.80
2018-07-20T13:23:24.825Z,31.70
2018-07-20T13:25:54.047Z,31.80
2018-07-20T13:28:23.241Z,31.90
2018-07-20T13:30:52.499Z,32.00
2018-07-20T13:33:21.704Z,32.00
2018-07-20T13:35:50.927Z,32.10
2018-07-20T13:38:20.168Z,32.00
2018-07-20T13:40:49.372Z,32.00
2018-07-20T13:43:18.641Z,32.00
2018-07-20T13:45:47.833Z,31.90
2018-07-20T13:50:45.977Z,31.70
2018-07-20T13:53:15.329Z,31.60
2018-07-20T13:55:44.519Z,31.60
2018-07-20T13:58:13.731Z,31.50
2018-07-20T14:00:42.956Z,31.40
2018-07-20T14:03:12.270Z,31.40
2018-07-20T14:05:41.466Z,31.40
2018-07-20T14:08:10.664Z,31.30
2018-07-20T14:10:39.933Z,31.30
2018-07-20T14:13:09.171Z,30.40
2018-07-20T14:15:38.716Z,30.50
2018-07-20T14:18:07.986Z,30.50
2018-07-20T14:20:37.244Z,30.40
2018-07-20T14:23:06.488Z,30.10
2018-07-20T14:25:35.710Z,30.10
2018-07-20T14:28:04.941Z,30.00
2018-07-20T14:30:34.195Z,29.90
2018-07-20T14:33:03.437Z,29.60
2018-07-20T14:35:32.637Z,29.50
2018-07-20T14:38:01.876Z,29.70
2018-07-20T14:40:31.052Z,29.90
2018-07-20T14:43:00.430Z,29.90
2018-07-20T14:45:29.669Z,30.20
2018-07-20T14:50:28.069Z,30.20
2018-07-20T14:52:57.351Z,30.20
2018-07-20T14:55:26.590Z,30.60
2018-07-20T14:57:55.892Z,30.90
2018-07-20T15:00:25.153Z,31.10
2018-07-20T15:49:12.470Z,30.50
2018-07-20T16:05:23.962Z,29.40
2018-07-20T16:08:00.328Z,29.30
2018-07-20T16:11:11.759Z,29.00
2018-07-20T16:13:44.323Z,29.00
2018-07-20T16:16:13.901Z,28.70
2018-07-20T16:18:44.720Z,28.70
2018-07-20T16:21:16.345Z,28.70
2018-07-20T16:30:44.974Z,28.70
2018-07-20T16:33:14.201Z,28.80
2018-07-20T16:35:43.531Z,28.70
2018-07-20T16:38:12.718Z,28.50
2018-07-20T16:40:41.933Z,28.30
2018-07-20T16:43:11.159Z,28.30
2018-07-20T16:45:40.788Z,28.20
2018-07-20T16:48:10.106Z,28.20
2018-07-20T16:50:39.316Z,28.30
2018-07-20T16:53:08.607Z,28.40
2018-07-20T16:55:37.890Z,28.50
2018-07-20T16:58:07.208Z,28.50
2018-07-20T17:00:36.436Z,28.60
2018-07-20T17:03:05.709Z,28.70
2018-07-20T17:05:34.925Z,28.70
2018-07-20T17:08:04.215Z,28.80
2018-07-20T17:10:33.482Z,28.70
2018-07-20T17:13:02.716Z,28.80
2018-07-20T17:15:31.944Z,28.80
2018-07-20T17:18:01.161Z,28.80
2018-07-20T17:20:30.382Z,28.70
2018-07-20T17:22:59.628Z,28.70
2018-07-20T17:25:28.894Z,28.70
2018-07-20T17:27:58.146Z,28.70
2018-07-20T17:30:27.313Z,28.80
2018-07-20T17:32:56.498Z,28.80
2018-07-20T17:35:25.743Z,28.80
2018-07-20T17:37:54.979Z,28.80
2018-07-20T17:40:24.194Z,28.80
2018-07-20T17:42:53.384Z,28.70
2018-07-20T17:45:22.609Z,28.60
2018-07-20T17:47:51.798Z,28.50
2018-07-20T17:50:20.999Z,28.50
2018-07-20T17:52:50.201Z,28.40
2018-07-20T17:55:19.408Z,28.50
2018-07-20T17:57:48.644Z,28.40
2018-07-20T18:00:17.977Z,28.40
2018-07-20T18:02:47.197Z,28.40
2018-07-20T18:05:16.461Z,28.40
2018-07-20T18:07:45.696Z,28.30
2018-07-20T18:10:14.927Z,28.30
2018-07-20T18:12:47.072Z,28.20
2018-07-20T18:15:16.400Z,28.20
2018-07-20T18:17:45.761Z,28.20
2018-07-20T18:20:14.979Z,28.10
2018-07-20T18:22:44.224Z,28.10
2018-07-20T18:25:14.448Z,28.00
2018-07-20T18:27:43.688Z,27.90
2018-07-20T18:30:12.932Z,27.90
2018-07-20T18:32:42.406Z,27.80
2018-07-20T18:35:11.645Z,27.80
2018-07-20T18:37:41.140Z,27.70
2018-07-20T18:40:10.505Z,27.70
2018-07-20T18:42:39.735Z,27.60
2018-07-20T18:45:09.474Z,27.50
2018-07-20T18:47:38.761Z,27.50
2018-07-20T18:50:09.525Z,27.40
2018-07-20T18:52:38.869Z,27.40
2018-07-20T18:55:08.473Z,27.30
2018-07-20T18:57:37.706Z,27.20
2018-07-20T19:00:07.589Z,27.20
2018-07-20T19:02:36.840Z,27.10
2018-07-20T19:05:06.049Z,27.00
2018-07-20T19:07:35.391Z,27.00
2018-07-20T19:10:04.612Z,26.90
2018-07-20T19:15:02.809Z,26.80
2018-07-20T19:17:32.025Z,26.70
2018-07-20T19:20:01.278Z,26.70
2018-07-20T19:22:30.622Z,26.60
2018-07-20T19:24:59.805Z,26.50
2018-07-20T19:27:29.053Z,26.50
2018-07-20T19:29:58.258Z,26.40
2018-07-20T19:32:27.529Z,26.30
2018-07-20T19:34:56.720Z,26.30
2018-07-20T19:37:25.917Z,26.20
2018-07-20T19:39:55.113Z,26.20
2018-07-20T19:42:24.376Z,26.10
2018-07-20T19:44:53.580Z,26.10
2018-07-20T19:47:22.849Z,26.10
2018-07-20T19:49:52.057Z,26.00
2018-07-20T19:52:21.414Z,25.90
2018-07-20T19:54:50.639Z,25.90
2018-07-20T19:57:19.868Z,25.80
2018-07-20T19:59:49.080Z,25.70
2018-07-20T20:02:18.339Z,25.70
2018-07-20T20:04:47.543Z,25.60
2018-07-20T20:07:16.800Z,25.60
2018-07-20T20:09:46.168Z,25.50
2018-07-20T20:12:15.859Z,25.50
2018-07-20T20:14:45.142Z,25.40
2018-07-20T20:17:14.438Z,25.30
2018-07-20T20:19:43.672Z,25.30
2018-07-20T20:22:12.972Z,25.30
2018-07-20T20:24:42.238Z,25.20
2018-07-20T20:27:11.461Z,25.10
2018-07-20T20:29:40.828Z,25.10
2018-07-20T20:32:10.497Z,25.10
2018-07-20T20:34:39.734Z,25.00
2018-07-20T20:37:08.957Z,25.00
2018-07-20T20:39:38.248Z,24.90
2018-07-20T20:42:07.490Z,24.90
2018-07-20T20:44:36.724Z,24.80
2018-07-20T20:47:05.960Z,24.80
2018-07-20T20:49:35.196Z,24.70
2018-07-20T20:52:04.410Z,24.70
2018-07-20T20:54:33.678Z,24.70
2018-07-20T20:57:02.958Z,24.60
2018-07-20T20:59:32.175Z,24.60
2018-07-20T21:02:01.401Z,24.50
2018-07-20T21:04:30.704Z,24.50
2018-07-20T21:06:59.900Z,24.50
2018-07-20T21:09:29.152Z,24.40
2018-07-20T21:11:58.388Z,24.40
2018-07-20T21:14:27.582Z,24.30
2018-07-20T21:19:25.745Z,24.30
2018-07-20T21:21:54.914Z,24.30
2018-07-20T21:24:24.112Z,24.30
2018-07-20T21:26:53.357Z,24.20
2018-07-20T21:29:22.562Z,24.20
2018-07-20T21:31:51.774Z,24.10
2018-07-20T21:34:21.009Z,24.10
2018-07-20T21:36:50.204Z,24.10
2018-07-20T21:39:19.467Z,24.00
2018-07-20T21:41:48.668Z,23.90
2018-07-20T21:44:17.965Z,23.80
2018-07-20T21:46:47.204Z,23.50
2018-07-20T21:49:16.467Z,23.30
2018-07-20T21:51:45.767Z,23.10
2018-07-20T21:54:15.063Z,23.10
2018-07-20T21:56:44.316Z,23.10
2018-07-20T21:59:13.547Z,23.10
2018-07-20T22:01:42.835Z,23.10
2018-07-20T22:04:12.048Z,23.10
2018-07-20T22:06:41.234Z,23.20
2018-07-20T22:09:11.553Z,23.20
2018-07-20T22:11:40.823Z,23.20
2018-07-20T22:14:10.095Z,23.30
2018-07-20T22:16:39.340Z,23.20
2018-07-20T22:19:08.584Z,23.00
2018-07-20T22:21:37.825Z,22.80
2018-07-20T22:24:07.052Z,22.40
2018-07-20T22:26:36.326Z,22.20
2018-07-20T22:29:05.521Z,22.00
2018-07-20T22:31:34.734Z,21.90
2018-07-20T22:34:03.974Z,21.90
2018-07-20T22:36:33.582Z,21.80
2018-07-20T22:39:02.799Z,21.80
2018-07-20T22:41:32.037Z,21.80
2018-07-20T22:44:01.227Z,21.60
2018-07-20T22:46:30.480Z,21.60
2018-07-20T22:48:59.660Z,21.50
2018-07-20T22:51:28.942Z,21.40
2018-07-20T22:53:58.219Z,21.30
2018-07-20T22:56:27.493Z,21.30
2018-07-20T22:58:56.727Z,21.30
2018-07-20T23:01:25.935Z,21.20
2018-07-20T23:03:55.120Z,21.30
2018-07-20T23:06:24.356Z,21.10
2018-07-20T23:08:53.556Z,21.10
2018-07-20T23:11:22.861Z,21.00
2018-07-20T23:13:52.104Z,21.00
2018-07-20T23:16:21.341Z,20.90
2018-07-20T23:18:50.584Z,20.80
2018-07-20T23:21:19.880Z,20.60
2018-07-20T23:23:49.181Z,20.70
2018-07-20T23:26:18.415Z,20.60
2018-07-20T23:28:47.630Z,20.50
2018-07-20T23:31:16.929Z,20.50
2018-07-20T23:33:46.146Z,20.50
2018-07-20T23:36:15.462Z,20.50
2018-07-20T23:38:44.720Z,20.50
2018-07-20T23:43:42.999Z,20.50
2018-07-20T23:46:12.232Z,20.50
2018-07-20T23:48:41.464Z,20.50
2018-07-20T23:51:10.697Z,20.50
2018-07-20T23:53:39.895Z,20.50
2018-07-20T23:56:09.156Z,20.40
2018-07-20T23:58:38.393Z,20.20
